Time;durP1;ratioP1;P1;durP2;ratioP2;P2;SDS_P1;SDS_P2;PMS_P1;PMS_P2;Temp;Humidity;BMP_temperature;BMP_pressure;BME280_temperature;BME280_humidity;BME280_pressure;Samples;Min_cycle;Max_cycle;Signal;HPM_P1;HPM_P2
2023/01/30 00:01:29;;;;;;;;;;;;;;;5.47;89.93;101874.47;4966410;28;19975;-53
2023/01/30 00:03:54;;;;;;;;;;;;;;;5.50;90.54;101869.56;4967403;28;19922;-54
2023/01/30 00:06:20;;;;;;;;;;;;;;;5.50;90.62;101867.00;4970387;28;19924;-53
2023/01/30 00:08:45;;;;;;;;;;;;;;;5.51;90.30;101884.06;4963097;28;19922;-51
2023/01/30 00:11:11;;;;;;;;;;;;;;;5.52;90.75;101881.66;4965152;28;19934;-52
2023/01/30 00:13:37;;;;;;;;;;;;;;;5.53;91.48;101892.72;4971622;28;19925;-51
2023/01/30 00:16:02;;;;;;;;;;;;;;;5.53;91.58;101857.88;4974446;28;19990;-53
2023/01/30 00:18:28;;;;;;;;;;;;;;;5.56;91.51;101862.28;4963837;28;19914;-53
2023/01/30 00:20:57;;;;;;;;;;;;;;;5.56;92.25;101859.75;4971375;28;19930;-50
2023/01/30 00:23:23;;;;;;;;;;;;;;;5.56;92.14;101877.59;4968673;28;19966;-53
2023/01/30 00:25:49;;;;;;;;;;;;;;;5.57;91.56;101857.28;4977356;28;20586;-54
2023/01/30 00:28:14;;;;;;;;;;;;;;;5.57;91.98;101870.03;4975042;28;19974;-51
2023/01/30 00:30:39;;;;;;;;;;;;;;;5.59;91.53;101878.69;4968821;28;21379;-47
2023/01/30 00:33:04;;;;;;;;;;;;;;;5.61;91.99;101863.47;4979311;28;19941;-50
2023/01/30 00:35:29;;;;;;;;;;;;;;;5.63;91.73;101861.91;4996126;28;20019;-54
2023/01/30 00:37:56;;;;;;;;;;;;;;;5.64;91.62;101850.91;4998479;28;20247;-52
2023/01/30 00:40:22;;;;;;;;;;;;;;;5.66;91.62;101849.34;4984909;28;20303;-53
2023/01/30 00:48:14;;;;;;;;;;;;;;;5.70;91.63;101856.38;4976428;28;19980;-50
2023/01/30 00:50:43;;;;;;;;;;;;;;;5.70;91.88;101855.50;4973610;28;19924;-54
2023/01/30 00:53:12;;;;;;;;;;;;;;;5.70;91.53;101856.38;4985826;28;19928;-50
2023/01/30 00:55:38;;;;;;;;;;;;;;;5.71;92.29;101845.41;4973860;28;19918;-53
2023/01/30 00:58:03;;;;;;;;;;;;;;;5.72;92.09;101839.53;4976831;28;20020;-53
2023/01/30 01:00:28;;;;;;;;;;;;;;;5.72;92.33;101831.88;4987284;28;20416;-51
2023/01/30 01:02:53;;;;;;;;;;;;;;;5.72;92.54;101841.19;4970524;28;19945;-53
2023/01/30 01:05:19;;;;;;;;;;;;;;;5.75;92.47;101828.63;4978578;28;20314;-52
2023/01/30 01:07:44;;;;;;;;;;;;;;;5.74;92.67;101832.84;4970033;28;19922;-54
2023/01/30 01:10:15;;;;;;;;;;;;;;;5.76;92.65;101826.16;4974834;28;19965;-54
2023/01/30 01:12:40;;;;;;;;;;;;;;;5.78;92.59;101816.06;4970810;28;20286;-53
2023/01/30 01:15:06;;;;;;;;;;;;;;;5.78;92.80;101806.72;4977306;28;19922;-52
2023/01/30 01:17:31;;;;;;;;;;;;;;;5.81;93.03;101812.00;4967956;28;19930;-50
2023/01/30 01:19:56;;;;;;;;;;;;;;;5.83;92.96;101822.34;4976817;28;19965;-54
2023/01/30 01:22:21;;;;;;;;;;;;;;;5.85;93.34;101815.66;4968427;28;20072;-52
2023/01/30 01:24:47;;;;;;;;;;;;;;;5.87;93.32;101806.41;4973410;28;19918;-54
2023/01/30 01:27:12;;;;;;;;;;;;;;;5.88;93.15;101806.53;4964172;28;19926;-49
2023/01/30 01:29:37;;;;;;;;;;;;;;;5.90;93.54;101797.28;4972192;28;20629;-53
2023/01/30 01:32:02;;;;;;;;;;;;;;;5.92;93.14;101792.28;4971592;28;20387;-53
2023/01/30 01:34:28;;;;;;;;;;;;;;;5.96;93.47;101808.69;4968129;28;20287;-53
2023/01/30 01:36:53;;;;;;;;;;;;;;;5.96;93.19;101803.59;4972075;28;20025;-46
2023/01/30 01:39:18;;;;;;;;;;;;;;;5.98;93.13;101799.44;4966571;28;20030;-52
2023/01/30 01:41:43;;;;;;;;;;;;;;;6.00;93.31;101802.97;4968922;28;20013;-54
2023/01/30 01:44:10;;;;;;;;;;;;;;;6.01;93.92;101790.31;4967795;28;20016;-51
2023/01/30 01:46:37;;;;;;;;;;;;;;;6.01;93.92;101784.34;4982121;28;19972;-53
2023/01/30 01:49:06;;;;;;;;;;;;;;;6.02;93.77;101771.66;4975780;28;20315;-52
2023/01/30 01:51:35;;;;;;;;;;;;;;;6.04;93.94;101766.63;4966265;28;20338;-49
2023/01/30 01:54:12;;;;;;;;;;;;;;;6.04;93.99;101764.97;4967439;28;19925;-53
2023/01/30 01:56:42;;;;;;;;;;;;;;;6.06;93.99;101770.16;4975768;28;19925;-53
2023/01/30 01:59:14;;;;;;;;;;;;;;;6.08;93.51;101769.47;4969032;28;20394;-54
2023/01/30 02:01:40;;;;;;;;;;;;;;;6.08;94.23;101754.16;4965094;28;20076;-52
2023/01/30 02:04:08;;;;;;;;;;;;;;;6.08;94.42;101768.59;4972143;28;20017;-51
2023/01/30 02:06:34;;;;;;;;;;;;;;;6.09;94.38;101749.94;4978660;28;20397;-50
2023/01/30 02:09:02;;;;;;;;;;;;;;;6.10;94.68;101755.13;4968402;28;19928;-50
2023/01/30 02:11:30;;;;;;;;;;;;;;;6.11;94.00;101748.34;4967999;28;19918;-52
2023/01/30 02:13:56;;;;;;;;;;;;;;;6.13;94.45;101731.47;4976303;28;19921;-51
2023/01/30 02:16:22;;;;;;;;;;;;;;;6.15;94.29;101732.41;4969929;28;19978;-54
2023/01/30 02:18:47;;;;;;;;;;;;;;;6.16;94.27;101726.50;4972231;28;19928;-53
2023/01/30 02:21:25;;;;;;;;;;;;;;;6.17;94.78;101728.28;4992347;28;20270;-51
2023/01/30 02:23:59;;;;;;;;;;;;;;;6.18;95.00;101733.47;4967708;28;20487;-54
2023/01/30 02:26:46;;;;;;;;;;;;;;;6.17;95.53;101721.50;4969281;28;19971;-54
2023/01/30 02:29:30;;;;;;;;;;;;;;;6.21;95.43;101720.03;4974146;28;19949;-48
2023/01/30 02:32:01;;;;;;;;;;;;;;;6.22;95.39;101713.22;4970217;28;19933;-54
2023/01/30 02:34:37;;;;;;;;;;;;;;;6.23;95.53;101722.66;4962957;28;20476;-53
2023/01/30 02:37:12;;;;;;;;;;;;;;;6.25;95.55;101731.28;4980264;28;19929;-54
2023/01/30 02:39:37;;;;;;;;;;;;;;;6.26;96.15;101738.19;4970717;28;19932;-50
2023/01/30 02:42:08;;;;;;;;;;;;;;;6.28;95.83;101729.78;4972079;28;19920;-47
2023/01/30 02:44:52;;;;;;;;;;;;;;;6.28;96.21;101701.69;4976296;28;20018;-52
2023/01/30 02:47:23;;;;;;;;;;;;;;;6.31;96.49;101708.66;4973159;28;20684;-53
2023/01/30 02:49:51;;;;;;;;;;;;;;;6.32;96.44;101703.66;4974107;28;20345;-53
2023/01/30 02:52:16;;;;;;;;;;;;;;;6.33;96.38;101695.19;4971866;28;20491;-54
2023/01/30 02:54:41;;;;;;;;;;;;;;;6.35;97.23;101706.38;4970455;28;20210;-54
2023/01/30 02:57:20;;;;;;;;;;;;;;;6.36;96.92;101705.56;4965743;28;19922;-50
2023/01/30 02:59:47;;;;;;;;;;;;;;;6.37;97.57;101697.16;4969160;28;19925;-54
2023/01/30 03:02:19;;;;;;;;;;;;;;;6.40;97.20;101699.84;4972780;28;20370;-47
2023/01/30 03:04:44;;;;;;;;;;;;;;;6.41;97.64;101681.19;4978061;28;19918;-54
2023/01/30 03:07:13;;;;;;;;;;;;;;;6.43;97.41;101687.28;4978561;28;20294;-53
2023/01/30 03:09:41;;;;;;;;;;;;;;;6.45;98.33;101682.25;4971278;28;19957;-53
2023/01/30 03:12:12;;;;;;;;;;;;;;;6.44;98.56;101683.06;4966942;28;19983;-48
2023/01/30 03:14:43;;;;;;;;;;;;;;;6.45;98.57;101684.81;4964517;28;19929;-51
2023/01/30 03:17:09;;;;;;;;;;;;;;;6.48;98.64;101689.19;4967750;28;19930;-50
2023/01/30 03:19:34;;;;;;;;;;;;;;;6.50;98.52;101693.63;4966871;28;19925;-54
2023/01/30 03:22:00;;;;;;;;;;;;;;;6.49;99.39;101681.63;4972387;28;20226;-54
2023/01/30 03:24:25;;;;;;;;;;;;;;;6.51;99.98;101677.50;4969917;28;19965;-51
2023/01/30 03:26:57;;;;;;;;;;;;;;;6.53;100.00;101667.34;4978233;28;19968;-53
2023/01/30 03:29:22;;;;;;;;;;;;;;;6.52;100.00;101665.59;4967275;28;20294;-52
2023/01/30 03:31:47;;;;;;;;;;;;;;;6.53;100.00;101658.00;4974901;28;19926;-54
2023/01/30 03:34:12;;;;;;;;;;;;;;;6.53;100.00;101670.78;4970447;28;20340;-48
2023/01/30 03:36:37;;;;;;;;;;;;;;;6.55;100.00;101661.56;4965683;28;19960;-53
2023/01/30 03:39:03;;;;;;;;;;;;;;;6.54;100.00;101658.88;4968105;28;19945;-54
2023/01/30 03:41:28;;;;;;;;;;;;;;;6.55;100.00;101665.75;4963379;28;20282;-54
2023/01/30 03:43:53;;;;;;;;;;;;;;;6.53;100.00;101655.47;4977130;28;19963;-54
2023/01/30 03:46:19;;;;;;;;;;;;;;;6.53;100.00;101657.13;4975664;28;19937;-54
2023/01/30 03:48:44;;;;;;;;;;;;;;;6.55;100.00;101656.44;4966469;28;20009;-53
2023/01/30 03:51:09;;;;;;;;;;;;;;;6.57;100.00;101659.06;4967142;28;19926;-54
2023/01/30 03:53:34;;;;;;;;;;;;;;;6.54;100.00;101656.34;4965966;28;20024;-51
2023/01/30 03:56:00;;;;;;;;;;;;;;;6.55;100.00;101659.00;4971708;28;19926;-53
2023/01/30 03:58:25;;;;;;;;;;;;;;;6.55;100.00;101661.56;4967582;28;19929;-54
2023/01/30 04:00:50;;;;;;;;;;;;;;;6.58;100.00;101665.94;4967419;28;19918;-50
2023/01/30 04:03:15;;;;;;;;;;;;;;;6.61;100.00;101668.66;4976178;28;19929;-54
2023/01/30 04:05:44;;;;;;;;;;;;;;;6.60;100.00;101665.22;4972482;28;19922;-54
2023/01/30 04:08:09;;;;;;;;;;;;;;;6.60;100.00;101665.22;4974447;28;19929;-53
2023/01/30 04:10:34;;;;;;;;;;;;;;;6.62;100.00;101660.22;4973370;28;19926;-53
2023/01/30 04:13:00;;;;;;;;;;;;;;;6.62;100.00;101665.34;4964259;28;20382;-54
2023/01/30 04:15:25;;;;;;;;;;;;;;;6.62;100.00;101663.66;4974645;28;19965;-54
2023/01/30 04:17:50;;;;;;;;;;;;;;;6.63;100.00;101660.31;4970226;28;19931;-50
2023/01/30 04:20:15;;;;;;;;;;;;;;;6.65;100.00;101653.59;4966015;28;19934;-46
2023/01/30 04:22:41;;;;;;;;;;;;;;;6.65;100.00;101658.69;4972422;28;19922;-54
2023/01/30 04:25:06;;;;;;;;;;;;;;;6.65;100.00;101653.59;4973319;28;20482;-54
2023/01/30 04:27:31;;;;;;;;;;;;;;;6.68;100.00;101660.56;4970683;28;20500;-54
2023/01/30 04:29:56;;;;;;;;;;;;;;;6.70;100.00;101649.63;4969568;28;19967;-50
2023/01/30 04:32:22;;;;;;;;;;;;;;;6.72;100.00;101654.81;4980851;28;19948;-54
2023/01/30 04:34:47;;;;;;;;;;;;;;;6.73;100.00;101654.00;4969620;28;19923;-49
2023/01/30 04:37:12;;;;;;;;;;;;;;;6.73;100.00;101651.47;4968919;28;21792;-46
2023/01/30 04:39:37;;;;;;;;;;;;;;;6.75;100.00;101649.88;4970459;28;19973;-51
2023/01/30 04:42:03;;;;;;;;;;;;;;;6.77;100.00;101655.09;4982607;28;19927;-50
2023/01/30 04:44:28;;;;;;;;;;;;;;;6.78;100.00;101646.63;4988424;28;19925;-54
2023/01/30 04:46:54;;;;;;;;;;;;;;;6.78;100.00;101657.72;4971305;28;19953;-52
2023/01/30 04:49:19;;;;;;;;;;;;;;;6.81;100.00;101659.59;4996328;28;20018;-53
2023/01/30 04:51:44;;;;;;;;;;;;;;;6.82;100.00;101663.88;4980384;28;19988;-52
2023/01/30 04:54:10;;;;;;;;;;;;;;;6.84;100.00;101662.28;4976912;28;19929;-51
2023/01/30 04:56:35;;;;;;;;;;;;;;;6.85;100.00;101656.38;4990310;28;19945;-54
2023/01/30 04:59:00;;;;;;;;;;;;;;;6.86;100.00;101653.94;4979764;28;20002;-49
2023/01/30 05:01:30;;;;;;;;;;;;;;;6.86;100.00;101648.81;4983181;28;19960;-53
2023/01/30 05:03:55;;;;;;;;;;;;;;;6.89;100.00;101656.63;4976840;28;19918;-53
2023/01/30 05:06:21;;;;;;;;;;;;;;;6.91;100.00;101655.03;4971023;28;19996;-49
2023/01/30 05:08:47;;;;;;;;;;;;;;;6.93;100.00;101665.38;4969033;28;19925;-54
2023/01/30 05:11:12;;;;;;;;;;;;;;;6.94;100.00;101664.56;4970264;28;21014;-52
2023/01/30 05:13:38;;;;;;;;;;;;;;;6.94;100.00;101665.44;4968792;28;19927;-54
2023/01/30 05:16:03;;;;;;;;;;;;;;;6.97;100.00;101662.16;4971480;28;20318;-54
2023/01/30 05:18:29;;;;;;;;;;;;;;;6.97;100.00;101652.81;4990554;28;19967;-54
2023/01/30 05:21:01;;;;;;;;;;;;;;;6.98;100.00;101654.59;4976369;28;19929;-54
2023/01/30 05:23:26;;;;;;;;;;;;;;;7.01;100.00;101647.88;4970319;28;19926;-54
2023/01/30 05:25:51;;;;;;;;;;;;;;;7.02;100.00;101658.19;4967844;28;19929;-54
2023/01/30 05:28:17;;;;;;;;;;;;;;;7.03;100.00;101659.94;4967623;28;19926;-54
2023/01/30 05:30:42;;;;;;;;;;;;;;;7.05;100.00;101662.63;4984697;28;19930;-54
2023/01/30 05:33:07;;;;;;;;;;;;;;;7.06;100.00;101655.03;4996990;28;19941;-48
2023/01/30 05:35:32;;;;;;;;;;;;;;;7.06;100.00;101644.78;4971773;28;19922;-54
2023/01/30 05:37:58;;;;;;;;;;;;;;;7.07;100.00;101655.91;4963659;28;19927;-53
2023/01/30 05:40:23;;;;;;;;;;;;;;;7.06;100.00;101649.91;4979233;28;19918;-51
2023/01/30 05:42:48;;;;;;;;;;;;;;;7.08;100.00;101642.31;4979215;28;19920;-52
2023/01/30 05:45:13;;;;;;;;;;;;;;;7.07;100.00;101650.78;4971103;28;19935;-53
2023/01/30 05:47:38;;;;;;;;;;;;;;;7.09;100.00;101655.16;4977146;28;19922;-54
2023/01/30 05:50:04;;;;;;;;;;;;;;;7.09;100.00;101657.72;4970951;28;19961;-54
2023/01/30 05:52:30;;;;;;;;;;;;;;;7.11;99.86;101660.41;4981302;28;19934;-50
2023/01/30 05:54:55;;;;;;;;;;;;;;;7.11;99.95;101662.94;4969727;28;19972;-53
2023/01/30 05:57:20;;;;;;;;;;;;;;;7.12;99.77;101657.03;4969063;28;19930;-54
2023/01/30 05:59:45;;;;;;;;;;;;;;;7.14;99.50;101674.22;4971305;28;19930;-54
2023/01/30 06:02:11;;;;;;;;;;;;;;;7.15;99.40;101677.66;4970988;28;19922;-54
2023/01/30 06:04:36;;;;;;;;;;;;;;;7.16;99.49;101671.72;4988671;28;19922;-54
2023/01/30 06:07:01;;;;;;;;;;;;;;;7.18;99.52;101677.81;4979274;28;19922;-54
2023/01/30 06:09:26;;;;;;;;;;;;;;;7.19;99.16;101684.69;4988918;28;19968;-52
2023/01/30 06:11:54;;;;;;;;;;;;;;;7.19;99.47;101679.59;4980317;28;19930;-54
2023/01/30 06:14:19;;;;;;;;;;;;;;;7.19;99.27;101685.56;4978527;28;19983;-50
2023/01/30 06:16:44;;;;;;;;;;;;;;;7.20;99.51;101694.13;4979327;28;19930;-54
2023/01/30 06:19:09;;;;;;;;;;;;;;;7.19;99.67;101693.25;4997158;28;19924;-54
2023/01/30 06:21:35;;;;;;;;;;;;;;;7.21;99.57;101701.00;4983978;28;19937;-53
2023/01/30 06:24:01;;;;;;;;;;;;;;;7.19;99.55;101702.59;4977469;28;19983;-54
2023/01/30 06:26:26;;;;;;;;;;;;;;;7.18;99.16;101695.72;4985435;28;19923;-47
2023/01/30 06:28:51;;;;;;;;;;;;;;;7.17;98.98;101701.66;4988743;28;19921;-54
2023/01/30 06:31:17;;;;;;;;;;;;;;;7.18;98.62;101723.88;4981770;28;19926;-54
2023/01/30 06:33:43;;;;;;;;;;;;;;;7.18;98.42;101722.19;5008321;28;19964;-54
2023/01/30 06:36:08;;;;;;;;;;;;;;;7.18;97.60;101706.84;4997501;28;19968;-51
2023/01/30 06:38:34;;;;;;;;;;;;;;;7.20;96.97;101720.59;4994277;28;19938;-50
2023/01/30 06:40:59;;;;;;;;;;;;;;;7.18;96.34;101721.31;4996823;28;19930;-54
2023/01/30 06:43:24;;;;;;;;;;;;;;;7.18;95.92;101711.06;5001640;28;19921;-54
2023/01/30 06:45:50;;;;;;;;;;;;;;;7.17;95.76;101723.00;5005507;28;19937;-52
2023/01/30 06:48:15;;;;;;;;;;;;;;;7.18;94.75;101724.75;4993762;28;19927;-52
2023/01/30 06:50:40;;;;;;;;;;;;;;;7.17;94.63;101728.09;4996914;28;20387;-50
2023/01/30 06:53:06;;;;;;;;;;;;;;;7.16;94.52;101711.00;4993796;28;19989;-46
2023/01/30 06:55:35;;;;;;;;;;;;;;;7.16;93.72;101699.88;4993648;28;20022;-51
2023/01/30 06:58:02;;;;;;;;;;;;;;;7.15;92.95;101700.66;4988778;28;20283;-53
2023/01/30 07:00:28;;;;;;;;;;;;;;;7.12;92.14;101691.16;5004929;28;20013;-53
2023/01/30 07:02:53;;;;;;;;;;;;;;;7.12;91.81;101700.50;4982296;28;20035;-53
2023/01/30 07:05:18;;;;;;;;;;;;;;;7.12;92.48;101695.41;4966211;28;19923;-54
2023/01/30 07:07:44;;;;;;;;;;;;;;;7.12;91.64;101697.94;4973206;28;19947;-53
2023/01/30 07:10:10;;;;;;;;;;;;;;;7.12;91.68;101706.50;4972161;28;20242;-54
2023/01/30 07:12:36;;;;;;;;;;;;;;;7.11;91.02;101711.53;4972645;28;19935;-47
2023/01/30 07:15:02;;;;;;;;;;;;;;;7.08;90.32;101725.03;4970667;28;20299;-53
2023/01/30 07:17:28;;;;;;;;;;;;;;;7.08;90.67;101731.81;4983436;28;19929;-54
2023/01/30 07:19:53;;;;;;;;;;;;;;;7.08;90.46;101731.81;4973153;28;19926;-51
2023/01/30 07:22:18;;;;;;;;;;;;;;;7.07;90.69;101736.06;4972826;28;19918;-54
2023/01/30 07:24:43;;;;;;;;;;;;;;;7.07;90.32;101730.06;4982724;28;19976;-53
2023/01/30 07:27:09;;;;;;;;;;;;;;;7.07;90.31;101735.19;4977058;28;19979;-52
2023/01/30 07:29:35;;;;;;;;;;;;;;;7.08;90.50;101732.69;4988116;28;19926;-53
2023/01/30 07:32:00;;;;;;;;;;;;;;;7.12;90.15;101744.88;4994264;28;19995;-52
2023/01/30 07:34:26;;;;;;;;;;;;;;;7.14;90.13;101743.25;4985534;28;20327;-52
2023/01/30 07:36:51;;;;;;;;;;;;;;;7.16;89.15;101746.81;4989658;28;20377;-52
2023/01/30 07:39:16;;;;;;;;;;;;;;;7.18;89.09;101755.44;4980904;28;20076;-56
2023/01/30 07:41:41;;;;;;;;;;;;;;;7.20;88.95;101752.97;4978252;28;19929;-53
2023/01/30 07:44:07;;;;;;;;;;;;;;;7.21;88.54;101757.28;4982666;28;19926;-54
2023/01/30 07:46:33;;;;;;;;;;;;;;;7.23;88.38;101754.03;4998174;28;20024;-53
2023/01/30 07:49:03;;;;;;;;;;;;;;;7.24;88.32;101755.78;4976512;28;20281;-54
2023/01/30 07:51:28;;;;;;;;;;;;;;;7.26;88.05;101758.41;4973771;28;19918;-52
2023/01/30 07:53:53;;;;;;;;;;;;;;;7.29;87.85;101755.16;4980502;28;20012;-52
2023/01/30 07:56:20;;;;;;;;;;;;;;;7.30;87.83;101759.47;4972106;28;20344;-50
2023/01/30 07:58:46;;;;;;;;;;;;;;;7.31;87.60;101771.47;4979245;28;19925;-53
2023/01/30 08:01:11;;;;;;;;;;;;;;;7.35;87.62;101773.41;4986993;28;20295;-53
2023/01/30 08:03:36;;;;;;;;;;;;;;;7.33;87.18;101763.06;4982777;28;19927;-54
2023/01/30 08:06:01;;;;;;;;;;;;;;;7.32;86.72;101765.56;4978770;28;19929;-51
2023/01/30 08:08:27;;;;;;;;;;;;;;;7.32;86.73;101775.78;4976473;28;19922;-52
2023/01/30 08:10:52;;;;;;;;;;;;;;;7.28;86.02;101772.19;4998211;28;19922;-52
2023/01/30 08:13:17;;;;;;;;;;;;;;;7.27;86.75;101767.84;4974691;28;20005;-53
2023/01/30 08:15:42;;;;;;;;;;;;;;;7.29;86.61;101784.19;4988068;28;20337;-53
2023/01/30 08:18:08;;;;;;;;;;;;;;;7.30;86.20;101782.50;4992474;28;20341;-53
2023/01/30 08:20:33;;;;;;;;;;;;;;;7.26;85.13;101777.19;4976426;28;20302;-53
2023/01/30 08:23:00;;;;;;;;;;;;;;;7.24;83.85;101783.03;4980379;28;20016;-53
2023/01/30 08:25:26;;;;;;;;;;;;;;;7.22;83.18;101787.19;4987411;28;20291;-52
2023/01/30 08:27:51;;;;;;;;;;;;;;;7.20;83.97;101783.66;4985961;28;19926;-53
2023/01/30 08:30:17;;;;;;;;;;;;;;;7.20;83.44;101793.88;4979618;28;19922;-53
2023/01/30 08:32:42;;;;;;;;;;;;;;;7.19;84.22;101797.25;4976770;28;20402;-53
2023/01/30 08:35:08;;;;;;;;;;;;;;;7.20;83.78;101792.22;4997367;28;19929;-53
2023/01/30 08:37:33;;;;;;;;;;;;;;;7.20;83.21;101792.22;4979154;28;20020;-53
2023/01/30 08:39:58;;;;;;;;;;;;;;;7.23;82.89;101796.63;4989992;28;19937;-53
2023/01/30 08:42:24;;;;;;;;;;;;;;;7.24;82.60;101801.81;4978821;28;19918;-53
2023/01/30 08:44:49;;;;;;;;;;;;;;;7.28;82.62;101808.00;4975562;28;19918;-50
2023/01/30 08:47:14;;;;;;;;;;;;;;;7.31;80.66;101805.59;4979886;28;19972;-52
2023/01/30 08:49:40;;;;;;;;;;;;;;;7.36;80.72;101811.88;4976416;28;20293;-53
2023/01/30 08:52:05;;;;;;;;;;;;;;;7.41;80.26;101807.91;4998986;28;19994;-53
2023/01/30 08:54:30;;;;;;;;;;;;;;;7.42;79.49;101807.09;4970735;28;19984;-53
2023/01/30 08:56:55;;;;;;;;;;;;;;;7.44;80.50;101802.06;4985471;28;19929;-49
2023/01/30 08:59:20;;;;;;;;;;;;;;;7.48;80.04;101814.25;4988746;28;19924;-48
2023/01/30 09:01:46;;;;;;;;;;;;;;;7.53;78.60;101820.50;4981841;28;19926;-53
2023/01/30 09:04:11;;;;;;;;;;;;;;;7.60;80.20;101827.72;4975156;28;19926;-53
2023/01/30 09:06:37;;;;;;;;;;;;;;;7.67;78.52;101818.69;4976753;28;19965;-52
2023/01/30 09:09:02;;;;;;;;;;;;;;;7.76;79.95;101811.50;4976765;28;19969;-51
2023/01/30 09:11:27;;;;;;;;;;;;;;;7.89;79.89;101831.00;4981358;28;19934;-50
2023/01/30 09:13:52;;;;;;;;;;;;;;;8.05;78.67;101839.56;4976328;28;20008;-52
2023/01/30 09:16:18;;;;;;;;;;;;;;;8.22;79.66;101840.47;4996112;28;19922;-52
2023/01/30 09:18:43;;;;;;;;;;;;;;;8.44;78.66;101846.78;4974222;28;20379;-53
2023/01/30 09:21:09;;;;;;;;;;;;;;;8.64;76.95;101840.09;4982862;28;19924;-49
2023/01/30 09:23:35;;;;;;;;;;;;;;;8.83;78.49;101835.09;4979223;28;19918;-54
2023/01/30 09:26:01;;;;;;;;;;;;;;;9.03;76.19;101839.53;4978003;28;20413;-53
2023/01/30 09:28:26;;;;;;;;;;;;;;;9.23;76.31;101855.06;4976445;28;19931;-54
2023/01/30 09:30:51;;;;;;;;;;;;;;;9.44;76.47;101856.09;4976296;28;19930;-54
2023/01/30 09:33:19;;;;;;;;;;;;;;;9.59;76.37;101849.13;4975400;28;19937;-48
2023/01/30 09:35:47;;;;;;;;;;;;;;;9.78;76.31;101844.88;4979052;28;20012;-54
2023/01/30 09:38:13;;;;;;;;;;;;;;;9.94;76.11;101861.03;4983795;28;19941;-53
2023/01/30 09:40:46;;;;;;;;;;;;;;;10.06;71.89;101862.44;4974289;28;20302;-53
2023/01/30 09:43:20;;;;;;;;;;;;;;;10.15;72.95;101858.59;4986591;28;19918;-54
2023/01/30 09:45:45;;;;;;;;;;;;;;;10.18;68.98;101858.72;4978538;28;20339;-51
2023/01/30 09:48:25;;;;;;;;;;;;;;;10.21;69.37;101855.44;4989756;28;19916;-54
2023/01/30 09:51:05;;;;;;;;;;;;;;;10.24;72.57;101857.28;4973308;28;20302;-54
2023/01/30 09:53:30;;;;;;;;;;;;;;;10.25;70.11;101864.19;4976398;28;19926;-54
2023/01/30 09:55:57;;;;;;;;;;;;;;;10.19;69.68;101877.59;4977120;28;19933;-46
2023/01/30 09:58:23;;;;;;;;;;;;;;;10.15;70.46;101876.59;4972580;28;20015;-54
2023/01/30 10:00:51;;;;;;;;;;;;;;;10.01;69.18;101881.88;4989084;28;19920;-54
2023/01/30 10:03:18;;;;;;;;;;;;;;;9.92;68.11;101884.91;4979008;28;19922;-52
2023/01/30 10:05:48;;;;;;;;;;;;;;;9.77;67.81;101879.97;4980266;28;19920;-54
2023/01/30 10:08:22;;;;;;;;;;;;;;;9.62;66.43;101885.22;4971444;28;19986;-54
2023/01/30 10:11:11;;;;;;;;;;;;;;;9.44;66.39;101888.59;4976743;28;20329;-52
2023/01/30 10:13:36;;;;;;;;;;;;;;;9.34;68.00;101890.72;5004472;28;20024;-53
2023/01/30 10:16:17;;;;;;;;;;;;;;;9.26;68.76;101896.25;4978201;28;20446;-52
2023/01/30 10:18:54;;;;;;;;;;;;;;;9.16;68.61;101899.16;4975061;28;20397;-54
2023/01/30 10:21:39;;;;;;;;;;;;;;;9.07;68.49;101890.22;4992537;28;19969;-53
2023/01/30 10:24:15;;;;;;;;;;;;;;;9.02;68.70;101893.34;4985908;28;20298;-53
2023/01/30 10:26:41;;;;;;;;;;;;;;;8.99;69.24;101895.78;4989896;28;20582;-53
2023/01/30 10:29:12;;;;;;;;;;;;;;;8.94;68.81;101894.66;4970392;28;19930;-52
2023/01/30 10:31:42;;;;;;;;;;;;;;;8.92;69.81;101911.63;4976599;28;20001;-51
2023/01/30 10:34:34;;;;;;;;;;;;;;;8.84;68.54;101918.94;4978985;28;19937;-53
2023/01/30 10:37:07;;;;;;;;;;;;;;;8.82;68.87;101913.72;4975410;28;19922;-53
2023/01/30 10:39:36;;;;;;;;;;;;;;;8.79;69.49;101920.38;4972177;28;19933;-53
2023/01/30 10:42:11;;;;;;;;;;;;;;;8.74;68.61;101919.28;4971516;28;20111;-54
2023/01/30 10:44:38;;;;;;;;;;;;;;;8.68;68.77;101937.78;4974915;28;19918;-53
2023/01/30 10:47:22;;;;;;;;;;;;;;;8.67;69.58;101938.56;4974837;28;19918;-52
2023/01/30 10:50:00;;;;;;;;;;;;;;;8.62;68.43;101939.16;4985391;28;20024;-53
2023/01/30 10:52:40;;;;;;;;;;;;;;;8.59;68.05;101922.78;4970851;28;19999;-52
2023/01/30 10:55:10;;;;;;;;;;;;;;;8.58;69.19;101921.03;4969838;28;19919;-48
2023/01/30 10:57:54;;;;;;;;;;;;;;;8.63;69.02;101922.97;4971593;28;19922;-56
2023/01/30 11:00:28;;;;;;;;;;;;;;;8.53;67.57;101911.31;4976094;28;19964;-51
2023/01/30 11:03:08;;;;;;;;;;;;;;;8.51;68.62;101933.44;4969471;28;19923;-55
2023/01/30 11:05:39;;;;;;;;;;;;;;;8.49;68.65;101933.38;4974862;28;20013;-53
2023/01/30 11:08:12;;;;;;;;;;;;;;;8.48;68.60;101930.69;4972994;28;19926;-51
2023/01/30 11:10:37;;;;;;;;;;;;;;;8.50;70.10;101939.38;4968862;28;19980;-52
2023/01/30 11:13:19;;;;;;;;;;;;;;;8.49;69.94;101927.31;4973695;28;19925;-52
2023/01/30 11:15:46;;;;;;;;;;;;;;;8.53;69.37;101925.03;4971551;28;19972;-52
2023/01/30 11:18:12;;;;;;;;;;;;;;;8.59;70.21;101929.59;4970971;28;19925;-52
2023/01/30 11:20:39;;;;;;;;;;;;;;;8.64;70.30;101919.59;4968865;28;20387;-52
2023/01/30 11:23:06;;;;;;;;;;;;;;;8.69;69.36;101928.41;4967603;28;19941;-53
2023/01/30 11:25:45;;;;;;;;;;;;;;;8.72;69.90;101923.41;4987732;28;20365;-53
2023/01/30 11:28:13;;;;;;;;;;;;;;;8.76;70.29;101925.34;4966552;28;20013;-52
2023/01/30 11:30:40;;;;;;;;;;;;;;;8.79;69.51;101915.25;4974734;28;20713;-52
2023/01/30 11:33:10;;;;;;;;;;;;;;;8.81;69.80;101913.66;4966781;28;20383;-50
2023/01/30 11:35:41;;;;;;;;;;;;;;;8.80;68.30;101924.72;4985199;28;19971;-53
2023/01/30 11:38:10;;;;;;;;;;;;;;;8.78;68.60;101931.44;4968672;28;20279;-50
2023/01/30 11:40:37;;;;;;;;;;;;;;;8.74;68.51;101930.41;4974394;28;20337;-51
2023/01/30 11:43:09;;;;;;;;;;;;;;;8.74;69.49;101938.09;4976210;28;20294;-50
2023/01/30 11:45:46;;;;;;;;;;;;;;;8.73;69.14;101932.88;4968811;28;19954;-53
2023/01/30 11:48:19;;;;;;;;;;;;;;;8.74;69.30;101938.09;4971298;28;19965;-51
2023/01/30 11:50:46;;;;;;;;;;;;;;;8.74;69.16;101938.09;4974243;28;19918;-53
2023/01/30 11:53:23;;;;;;;;;;;;;;;8.73;68.74;101935.44;4975207;28;19934;-53
2023/01/30 11:55:48;;;;;;;;;;;;;;;8.71;68.74;101935.38;4974143;28;19918;-52
2023/01/30 11:58:14;;;;;;;;;;;;;;;8.69;69.27;101931.84;4975765;28;19929;-53
2023/01/30 12:00:41;;;;;;;;;;;;;;;8.72;69.92;101926.00;4973575;28;20029;-53
2023/01/30 12:03:10;;;;;;;;;;;;;;;8.75;69.08;101934.72;4973610;28;19972;-52
2023/01/30 12:05:41;;;;;;;;;;;;;;;8.77;68.97;101942.50;4973654;28;19922;-50
2023/01/30 12:08:12;;;;;;;;;;;;;;;8.78;69.41;101945.13;4981367;28;19922;-47
2023/01/30 12:10:42;;;;;;;;;;;;;;;8.73;67.87;101933.75;4970132;28;19980;-53
2023/01/30 12:13:27;;;;;;;;;;;;;;;8.73;67.79;101935.44;4975061;28;19930;-51
2023/01/30 12:16:00;;;;;;;;;;;;;;;8.72;68.07;101933.69;4968777;28;19922;-50
2023/01/30 12:18:29;;;;;;;;;;;;;;;8.69;68.47;101923.28;4971877;28;20400;-53
2023/01/30 12:20:58;;;;;;;;;;;;;;;8.71;68.04;101934.50;4973114;28;19964;-53
2023/01/30 12:23:38;;;;;;;;;;;;;;;8.78;68.51;101924.63;4978534;28;19925;-50
2023/01/30 12:26:20;;;;;;;;;;;;;;;8.84;68.08;101944.56;4975875;28;19926;-53
2023/01/30 12:28:46;;;;;;;;;;;;;;;8.93;67.19;101928.81;4977399;28;19965;-53
2023/01/30 12:31:23;;;;;;;;;;;;;;;8.99;66.56;101937.69;4972867;28;20712;-53
2023/01/30 12:33:49;;;;;;;;;;;;;;;9.04;67.64;101927.66;4978938;28;19922;-53
2023/01/30 12:36:26;;;;;;;;;;;;;;;9.09;66.44;101939.91;4973561;28;19926;-51
2023/01/30 12:39:12;;;;;;;;;;;;;;;9.14;65.40;101938.47;4985236;28;20347;-53
2023/01/30 12:41:52;;;;;;;;;;;;;;;9.14;65.42;101946.16;4971925;28;19926;-53
2023/01/30 12:44:35;;;;;;;;;;;;;;;9.13;65.43;101957.22;4975600;28;19986;-48
2023/01/30 12:47:06;;;;;;;;;;;;;;;9.12;66.27;101946.91;4974483;28;19929;-48
2023/01/30 12:49:31;;;;;;;;;;;;;;;9.11;66.58;101950.28;4994423;28;19927;-53
2023/01/30 12:52:15;;;;;;;;;;;;;;;9.10;65.69;101964.78;4973427;28;20007;-53
2023/01/30 12:54:53;;;;;;;;;;;;;;;9.04;65.30;101959.34;4974837;28;19918;-53